Time;durP1;ratioP1;P1;durP2;ratioP2;P2;SDS_P1;SDS_P2;PMS_P1;PMS_P2;Temp;Humidity;BMP_temperature;BMP_pressure;BME280_temperature;BME280_humidity;BME280_pressure;Samples;Min_cycle;Max_cycle;Signal;HPM_P1;HPM_P2
2023/06/10 00:01:55;;;;;;;3.65;3.30;;;;;;;13.67;58.86;150723.31;5065685;28;20325;-66
2023/06/10 00:04:22;;;;;;;4.47;3.65;;;;;;;13.54;58.82;150691.19;5065502;28;20055;-65
2023/06/10 00:06:49;;;;;;;4.13;3.42;;;;;;;13.60;59.27;150705.31;5065397;28;20213;-66
2023/06/10 00:09:15;;;;;;;4.57;3.50;;;;;;;13.53;59.26;150688.59;5065535;28;20037;-67
2023/06/10 00:11:41;;;;;;;4.97;3.67;;;;;;;13.50;59.00;150679.63;5065601;28;20025;-67
2023/06/10 00:14:08;;;;;;;3.38;2.60;;;;;;;13.58;59.57;150701.47;5065300;28;20071;-66
2023/06/10 00:16:34;;;;;;;4.63;3.00;;;;;;;13.71;58.93;150732.28;5067581;28;20298;-66
2023/06/10 00:19:00;;;;;;;4.80;2.97;;;;;;;13.64;59.59;150715.63;5065196;28;20029;-65
2023/06/10 00:21:27;;;;;;;9.75;3.30;;;;;;;13.40;59.40;150655.19;5065508;28;20021;-65
2023/06/10 00:23:53;;;;;;;7.03;3.60;;;;;;;13.23;60.55;150612.75;5065402;28;20075;-65
2023/06/10 00:26:18;;;;;;;4.30;3.53;;;;;;;13.26;60.18;150620.44;5065014;28;20333;-66
2023/06/10 00:28:45;;;;;;;4.50;3.38;;;;;;;13.36;60.24;150644.91;5064156;28;20317;-65
2023/06/10 00:31:10;;;;;;;5.10;3.10;;;;;;;13.41;59.27;150659.06;5065052;28;20074;-66
2023/06/10 00:33:36;;;;;;;3.65;3.30;;;;;;;13.52;59.89;150684.75;5065255;28;20056;-67
2023/06/10 00:36:02;;;;;;;4.90;3.50;;;;;;;13.57;59.52;150697.63;5051434;28;20351;-66
2023/06/10 00:38:27;;;;;;;5.72;3.53;;;;;;;13.46;60.55;150671.88;5064867;28;20253;-64
2023/06/10 00:40:53;;;;;;;4.05;3.60;;;;;;;13.38;60.21;150650.03;5064794;28;20033;-65
2023/06/10 00:43:18;;;;;;;3.80;3.47;;;;;;;13.35;60.15;150642.34;5064589;28;20028;-65
2023/06/10 00:45:44;;;;;;;6.75;3.97;;;;;;;13.41;60.50;150657.72;5064960;28;20179;-65
2023/06/10 00:48:09;;;;;;;4.53;3.35;;;;;;;13.13;60.39;150589.59;5064517;28;20025;-66
2023/06/10 00:50:39;;;;;;;3.70;3.40;;;;;;;13.08;60.63;150575.44;5064833;28;20032;-65
2023/06/10 00:53:05;;;;;;;6.68;3.10;;;;;;;12.99;60.97;150552.34;5064442;28;20033;-66
2023/06/10 00:55:32;;;;;;;4.97;3.58;;;;;;;12.85;60.38;150517.66;5064781;28;20025;-66
2023/06/10 00:57:59;;;;;;;3.72;3.22;;;;;;;13.06;61.45;150571.59;5064724;28;20048;-66
2023/06/10 01:00:25;;;;;;;4.90;3.28;;;;;;;13.13;61.32;150588.31;5064609;28;20052;-65
2023/06/10 01:02:55;;;;;;;3.92;2.97;;;;;;;13.05;61.63;150567.75;5064362;28;20096;-65
2023/06/10 01:05:21;;;;;;;3.53;3.03;;;;;;;12.98;61.84;150549.75;5064628;28;20028;-66
2023/06/10 01:07:47;;;;;;;4.63;2.67;;;;;;;13.07;62.50;150572.91;5053858;28;20104;-64
2023/06/10 01:10:18;;;;;;;4.63;3.00;;;;;;;12.99;63.02;150553.63;5063951;28;20052;-65
2023/06/10 01:13:08;;;;;;;6.90;3.15;;;;;;;13.13;62.53;150589.59;5064510;28;20067;-64
2023/06/10 01:15:34;;;;;;;3.42;3.03;;;;;;;13.16;62.54;150594.75;5064213;28;20268;-65
2023/06/10 01:18:14;;;;;;;5.47;3.00;;;;;;;13.27;61.94;150624.28;5064331;28;20228;-67
2023/06/10 01:20:42;;;;;;;4.60;3.80;;;;;;;13.16;63.00;150596.03;5064258;28;20075;-66
2023/06/10 01:23:10;;;;;;;5.88;3.17;;;;;;;13.05;61.73;150569.03;5063964;28;20090;-67
2023/06/10 01:25:44;;;;;;;4.65;3.15;;;;;;;13.13;62.50;150589.59;5066091;28;20055;-65
2023/06/10 01:28:25;;;;;;;3.58;2.80;;;;;;;13.07;62.84;150572.91;5079839;28;20048;-66
2023/06/10 01:31:07;;;;;;;9.38;3.40;;;;;;;13.04;62.66;150566.47;5064117;28;20147;-66
2023/06/10 01:33:37;;;;;;;2.78;2.58;;;;;;;12.90;61.73;150530.50;5063834;28;20267;-65
2023/06/10 01:36:03;;;;;;;4.80;3.50;;;;;;;12.97;63.08;150547.19;5063471;28;20021;-65
2023/06/10 01:38:34;;;;;;;3.15;2.85;;;;;;;12.94;63.61;150542.06;5063567;28;20071;-66
2023/06/10 01:41:01;;;;;;;6.05;2.83;;;;;;;13.01;62.54;150558.78;5062553;28;20242;-65
2023/06/10 01:43:26;;;;;;;5.25;3.53;;;;;;;13.06;62.04;150570.34;5063699;28;20025;-66
2023/06/10 01:45:52;;;;;;;4.15;3.15;;;;;;;12.99;63.18;150552.34;5076789;28;20043;-67
2023/06/10 01:48:17;;;;;;;4.88;3.33;;;;;;;13.09;63.49;150578.03;5063549;28;20025;-65
2023/06/10 01:50:43;;;;;;;4.50;3.20;;;;;;;13.15;62.62;150592.16;5063465;28;20031;-68
2023/06/10 01:53:09;;;;;;;3.03;2.75;;;;;;;12.94;62.83;150542.06;5063307;28;20044;-66
2023/06/10 01:55:35;;;;;;;5.28;3.17;;;;;;;13.10;63.59;150580.63;5063508;28;20205;-66
2023/06/10 01:58:00;;;;;;;4.93;3.08;;;;;;;13.05;62.39;150569.03;5079159;28;20020;-66
2023/06/10 02:00:26;;;;;;;4.40;3.15;;;;;;;13.05;63.64;150567.75;5063384;28;20108;-67
2023/06/10 02:02:51;;;;;;;4.65;3.00;;;;;;;12.97;63.39;150547.19;5063438;28;20036;-65
2023/06/10 02:05:17;;;;;;;5.70;2.95;;;;;;;12.94;63.93;150540.78;5063423;28;20048;-66
2023/06/10 02:07:43;;;;;;;4.25;3.10;;;;;;;12.78;63.00;150500.94;5063533;28;20045;-65
2023/06/10 02:10:08;;;;;;;5.55;2.97;;;;;;;12.80;63.25;150506.09;5063222;28;20029;-67
2023/06/10 02:12:34;;;;;;;3.13;2.72;;;;;;;12.83;63.17;150513.81;5077690;28;20062;-66
2023/06/10 02:15:00;;;;;;;5.72;2.80;;;;;;;12.98;63.50;150549.75;5062854;28;20025;-66
2023/06/10 02:17:26;;;;;;;4.63;3.30;;;;;;;12.75;63.69;150494.53;5062892;28;20040;-66
2023/06/10 02:20:13;;;;;;;6.05;3.00;;;;;;;13.08;62.58;150576.75;5062118;28;20246;-66
2023/06/10 02:22:39;;;;;;;3.30;3.00;;;;;;;12.95;62.90;150543.34;5063444;28;20301;-67
2023/06/10 02:25:05;;;;;;;3.42;3.05;;;;;;;12.89;62.73;150529.19;5063052;28;20036;-66
2023/06/10 02:27:31;;;;;;;4.15;2.97;;;;;;;12.59;62.89;150453.44;5063069;28;20217;-66
2023/06/10 02:29:57;;;;;;;3.92;2.90;;;;;;;12.78;63.04;150500.94;5062850;28;20017;-66
2023/06/10 02:32:23;;;;;;;6.40;2.90;;;;;;;12.64;62.41;150464.97;5064929;28;20084;-66
2023/06/10 02:34:49;;;;;;;4.88;2.83;;;;;;;12.81;62.84;150508.63;5062837;28;20035;-67
2023/06/10 02:37:15;;;;;;;7.10;3.28;;;;;;;12.81;62.82;150507.38;5063690;28;20032;-67
2023/06/10 02:39:41;;;;;;;4.70;2.75;;;;;;;12.56;63.43;150447.00;5080540;28;20040;-66
2023/06/10 02:42:07;;;;;;;3.50;3.10;;;;;;;12.55;62.62;150443.16;5062915;28;20371;-66
2023/06/10 02:44:32;;;;;;;8.95;2.80;;;;;;;12.39;63.21;150404.59;5078281;28;20036;-67
2023/06/10 02:46:58;;;;;;;3.75;2.60;;;;;;;12.53;63.92;150439.28;5062724;28;20214;-66
2023/06/10 02:49:23;;;;;;;4.47;2.78;;;;;;;12.29;63.88;150377.66;5062997;28;20055;-66
2023/06/10 02:51:53;;;;;;;5.35;3.17;;;;;;;12.16;63.83;150345.56;5077325;28;20032;-65
2023/06/10 02:54:20;;;;;;;5.03;2.72;;;;;;;12.34;62.64;150390.47;5066908;28;20036;-66
2023/06/10 02:56:47;;;;;;;4.82;2.80;;;;;;;12.36;63.58;150395.66;5066790;28;20077;-65
2023/06/10 02:59:13;;;;;;;3.53;2.83;;;;;;;12.18;63.13;150351.94;5066733;28;20032;-65
2023/06/10 03:01:39;;;;;;;3.88;2.63;;;;;;;12.24;64.61;150367.38;5066803;28;20033;-66
2023/06/10 03:04:06;;;;;;;4.00;3.20;;;;;;;12.13;63.93;150339.13;5066675;28;20225;-66
2023/06/10 03:06:33;;;;;;;6.20;2.88;;;;;;;12.47;62.77;150422.59;5066730;28;20041;-66
2023/06/10 03:08:59;;;;;;;5.03;2.65;;;;;;;12.60;62.68;150456.00;5066654;28;20063;-65
2023/06/10 03:11:25;;;;;;;10.88;2.97;;;;;;;12.66;62.26;150470.13;5066610;28;20025;-66
2023/06/10 03:13:53;;;;;;;3.63;2.55;;;;;;;12.74;62.72;150490.66;5066443;28;20044;-65
2023/06/10 03:16:19;;;;;;;3.47;2.30;;;;;;;12.92;62.98;150536.91;5061872;28;20037;-65
2023/06/10 03:18:45;;;;;;;4.45;2.47;;;;;;;13.04;61.86;150566.47;5046622;28;20029;-65
2023/06/10 03:21:11;;;;;;;4.43;2.92;;;;;;;13.11;61.78;150583.16;5066105;28;20025;-65
2023/06/10 03:23:36;;;;;;;3.33;2.45;;;;;;;13.32;61.47;150634.56;5066321;28;20028;-68
2023/06/10 03:26:02;;;;;;;2.75;2.33;;;;;;;13.34;61.03;150639.69;5066339;28;20056;-65
2023/06/10 03:28:28;;;;;;;2.42;2.13;;;;;;;13.08;60.62;150576.75;5066075;28;20047;-66
2023/06/10 03:30:53;;;;;;;4.55;2.10;;;;;;;12.86;61.24;150520.22;5062420;28;20100;-65
2023/06/10 03:33:19;;;;;;;3.00;2.15;;;;;;;13.20;61.00;150606.31;5066347;28;20025;-65
2023/06/10 03:35:45;;;;;;;3.33;2.90;;;;;;;13.36;61.32;150644.91;5066045;28;20067;-66
2023/06/10 03:38:10;;;;;;;4.38;2.42;;;;;;;13.44;61.23;150666.75;5065964;28;20021;-66
2023/06/10 03:40:36;;;;;;;7.97;2.15;;;;;;;13.36;61.18;150644.91;5066020;28;20043;-67
2023/06/10 03:43:02;;;;;;;3.42;2.15;;;;;;;13.54;59.61;150691.19;5064748;28;20036;-66
2023/06/10 03:45:28;;;;;;;3.30;2.20;;;;;;;13.61;59.53;150709.16;5065886;28;20033;-65
2023/06/10 03:47:54;;;;;;;7.22;2.42;;;;;;;13.51;60.02;150683.47;5065848;28;20244;-67
2023/06/10 03:50:19;;;;;;;2.42;2.03;;;;;;;13.50;58.96;150679.63;5065831;28;20074;-67
2023/06/10 03:52:46;;;;;;;2.60;2.05;;;;;;;14.05;58.64;150817.16;5065854;28;20029;-65
2023/06/10 03:55:13;;;;;;;4.05;2.40;;;;;;;13.88;59.24;150774.72;5065824;28;20029;-65
2023/06/10 03:57:39;;;;;;;3.22;2.05;;;;;;;13.59;58.74;150702.72;5085058;28;20040;-64
2023/06/10 04:00:10;;;;;;;2.88;2.13;;;;;;;13.90;58.89;150779.88;5067164;28;20028;-65
2023/06/10 04:02:36;;;;;;;2.78;2.03;;;;;;;13.73;57.08;150738.72;5065770;28;20356;-65
2023/06/10 04:05:02;;;;;;;3.42;1.77;;;;;;;13.78;57.71;150751.59;5065598;28;20033;-65
2023/06/10 04:07:28;;;;;;;9.80;2.17;;;;;;;13.87;57.85;150773.44;5065968;28;20047;-66
2023/06/10 04:09:54;;;;;;;4.30;2.22;;;;;;;13.84;57.80;150765.75;5065664;28;20217;-66
2023/06/10 04:12:19;;;;;;;1.85;1.65;;;;;;;13.96;56.71;150795.28;5065698;28;20095;-66
2023/06/10 04:14:46;;;;;;;2.95;1.67;;;;;;;14.01;56.89;150806.84;5065731;28;20267;-65
2023/06/10 04:17:12;;;;;;;2.70;1.67;;;;;;;13.69;56.49;150727.16;5065192;28;20032;-66
2023/06/10 04:19:37;;;;;;;6.65;1.77;;;;;;;14.07;56.84;150822.31;5065374;28;20035;-64
2023/06/10 04:22:03;;;;;;;3.47;1.60;;;;;;;14.00;55.63;150804.31;5065329;28;20033;-66
2023/06/10 04:24:29;;;;;;;3.72;1.85;;;;;;;14.16;56.98;150845.44;5065278;28;20067;-66
2023/06/10 04:26:55;;;;;;;4.50;1.90;;;;;;;14.12;54.85;150836.47;5077743;28;20020;-65
2023/06/10 04:29:20;;;;;;;3.63;2.00;;;;;;;13.83;55.43;150763.16;5072561;28;20029;-65
2023/06/10 04:31:46;;;;;;;4.68;1.80;;;;;;;13.95;54.77;150794.03;5068878;28;20195;-66
2023/06/10 04:34:12;;;;;;;4.68;1.88;;;;;;;14.19;54.91;150851.88;5064848;28;20241;-66
2023/06/10 04:36:38;;;;;;;5.00;1.98;;;;;;;14.32;56.66;150885.28;5065431;28;20029;-66
2023/06/10 04:39:05;;;;;;;5.75;1.98;;;;;;;14.46;53.39;150920.03;5080765;28;20354;-65
2023/06/10 04:41:31;;;;;;;4.03;2.00;;;;;;;14.38;53.48;150900.75;5067139;28;20067;-65
2023/06/10 04:43:57;;;;;;;5.32;1.88;;;;;;;14.31;53.45;150882.75;5064965;28;20032;-66
2023/06/10 04:46:24;;;;;;;3.33;2.63;;;;;;;14.44;52.28;150916.19;5064798;28;20043;-66
2023/06/10 04:48:49;;;;;;;2.05;1.80;;;;;;;14.56;52.37;150945.75;5065112;28;20024;-66
2023/06/10 04:51:16;;;;;;;4.80;1.95;;;;;;;14.59;52.31;150953.50;5064724;28;20344;-66
2023/06/10 04:53:42;;;;;;;4.32;1.70;;;;;;;14.36;51.50;150894.31;5064576;28;20029;-66
2023/06/10 04:56:07;;;;;;;2.60;1.83;;;;;;;14.61;51.54;150957.34;5060071;28;20298;-66
2023/06/10 04:58:33;;;;;;;1.83;1.70;;;;;;;14.68;52.51;150975.41;5050055;28;20033;-66
2023/06/10 05:00:59;;;;;;;4.10;1.80;;;;;;;14.88;52.23;151025.59;5064480;28;20082;-66
2023/06/10 05:03:25;;;;;;;3.47;2.00;;;;;;;14.94;51.89;151039.72;5064586;28;20036;-65
2023/06/10 05:05:50;;;;;;;2.40;2.20;;;;;;;14.84;52.93;151015.28;5064251;28;20033;-66
2023/06/10 05:08:16;;;;;;;5.40;2.47;;;;;;;14.97;53.40;151048.72;5043016;28;20241;-66
2023/06/10 05:10:42;;;;;;;4.85;2.05;;;;;;;15.27;53.36;151123.34;5053710;28;20028;-66
2023/06/10 05:13:07;;;;;;;2.83;1.80;;;;;;;15.25;52.38;151118.22;5081925;28;20371;-65
2023/06/10 05:15:33;;;;;;;2.33;1.70;;;;;;;15.27;50.92;151123.34;5066117;28;20029;-67
2023/06/10 05:17:59;;;;;;;3.65;1.58;;;;;;;15.46;50.53;151169.69;5069152;28;20416;-67
2023/06/10 05:20:25;;;;;;;4.35;1.70;;;;;;;15.53;49.07;151189.03;5054162;28;20041;-66
2023/06/10 05:22:51;;;;;;;2.45;1.85;;;;;;;15.93;48.99;151288.16;5070598;28;20032;-67
2023/06/10 05:25:16;;;;;;;1.73;1.30;;;;;;;15.84;49.09;151265.00;5062795;28;20214;-66
2023/06/10 05:27:42;;;;;;;3.85;1.75;;;;;;;15.62;48.71;151210.91;5083277;28;20030;-68
2023/06/10 05:30:10;;;;;;;1.73;1.38;;;;;;;15.77;49.85;151248.22;5065408;28;20032;-67
2023/06/10 05:32:36;;;;;;;2.95;1.70;;;;;;;15.85;48.79;151267.59;5068742;28;20233;-65
2023/06/10 05:35:03;;;;;;;3.25;1.60;;;;;;;15.46;50.13;151169.69;5063593;28;20029;-67
2023/06/10 05:37:29;;;;;;;6.47;1.58;;;;;;;15.58;49.47;151200.59;5073348;28;20025;-67
2023/06/10 05:39:55;;;;;;;4.32;1.67;;;;;;;15.78;49.51;151250.78;5063717;28;20044;-67
2023/06/10 05:42:20;;;;;;;1.67;1.50;;;;;;;15.82;48.35;151261.16;5080173;28;20020;-67
2023/06/10 05:44:46;;;;;;;1.70;1.42;;;;;;;15.89;49.36;151277.91;5067817;28;20197;-66
2023/06/10 05:47:11;;;;;;;2.80;1.50;;;;;;;15.69;48.90;151228.91;5067438;28;20040;-66
2023/06/10 05:49:37;;;;;;;2.38;1.80;;;;;;;15.84;50.41;151265.00;5062447;28;20025;-66
2023/06/10 05:52:03;;;;;;;2.80;1.80;;;;;;;15.68;49.87;151226.31;5075769;28;20039;-65
2023/06/10 05:54:28;;;;;;;2.78;1.58;;;;;;;15.83;50.03;151262.41;5062309;28;20344;-67
2023/06/10 05:56:54;;;;;;;9.02;4.65;;;;;;;16.10;50.01;151329.38;5076067;28;20054;-66
2023/06/10 05:59:19;;;;;;;2.42;1.60;;;;;;;16.14;50.37;151339.69;5072055;28;20032;-66
2023/06/10 06:01:45;;;;;;;5.78;1.70;;;;;;;16.31;49.29;151383.47;5068359;28;20029;-68
2023/06/10 06:04:10;;;;;;;1.70;1.40;;;;;;;16.29;50.04;151378.34;5063171;28;20029;-67
2023/06/10 06:06:39;;;;;;;2.35;1.60;;;;;;;16.47;49.79;151422.09;5063330;28;20090;-66
2023/06/10 06:09:05;;;;;;;3.00;1.42;;;;;;;16.32;48.73;151384.78;5063235;28;20072;-65
2023/06/10 06:11:30;;;;;;;1.73;1.50;;;;;;;16.47;48.98;151422.09;5063301;28;20340;-66
2023/06/10 06:13:56;;;;;;;3.15;1.60;;;;;;;16.59;49.68;151453.03;5063190;28;20036;-66
2023/06/10 06:16:21;;;;;;;1.83;1.40;;;;;;;16.37;49.17;151397.63;5062963;28;20028;-66
2023/06/10 06:18:47;;;;;;;5.20;1.58;;;;;;;16.26;48.62;151370.63;5063237;28;20036;-67
2023/06/10 06:21:12;;;;;;;2.80;1.45;;;;;;;16.30;49.83;151379.59;5063000;28;20025;-66
2023/06/10 06:23:38;;;;;;;2.75;1.50;;;;;;;16.20;49.68;151355.13;5063123;28;20029;-66
2023/06/10 06:26:03;;;;;;;2.90;1.50;;;;;;;16.07;48.48;151321.66;5062116;28;20039;-66
2023/06/10 06:28:30;;;;;;;3.00;1.60;;;;;;;16.48;49.55;151424.69;5063174;28;20033;-66
2023/06/10 06:30:56;;;;;;;4.88;1.75;;;;;;;16.39;49.44;151404.09;5062904;28;20033;-66
2023/06/10 06:33:22;;;;;;;2.95;1.75;;;;;;;16.31;48.87;151383.47;5062929;28;20055;-65
2023/06/10 06:35:47;;;;;;;4.53;1.70;;;;;;;16.33;49.28;151388.66;5066731;28;20089;-66
2023/06/10 06:38:13;;;;;;;2.47;1.50;;;;;;;16.32;48.87;151384.78;5072677;28;20055;-65
2023/06/10 06:40:38;;;;;;;3.10;1.25;;;;;;;16.12;47.67;151334.50;5061362;28;20535;-66
2023/06/10 06:43:04;;;;;;;1.75;1.10;;;;;;;15.99;48.69;151302.31;5062765;28;20081;-66
2023/06/10 06:45:29;;;;;;;2.30;1.50;;;;;;;15.84;49.85;151266.28;5062643;28;20021;-67
2023/06/10 06:47:55;;;;;;;3.10;1.40;;;;;;;15.86;48.75;151270.13;5062653;28;20207;-66
2023/06/10 06:50:21;;;;;;;2.90;1.63;;;;;;;15.96;47.54;151295.91;5062800;28;20033;-66
2023/06/10 06:52:47;;;;;;;3.70;1.42;;;;;;;16.24;48.09;151364.16;5058273;28;20059;-65
2023/06/10 06:55:12;;;;;;;2.92;1.50;;;;;;;16.31;46.64;151383.47;5044049;28;20088;-65
2023/06/10 06:57:38;;;;;;;3.42;1.38;;;;;;;16.34;46.77;151391.19;5062615;28;20032;-65
2023/06/10 07:00:04;;;;;;;3.35;1.60;;;;;;;16.33;46.35;151388.66;5062710;28;20036;-67
2023/06/10 07:02:31;;;;;;;6.50;1.38;;;;;;;16.62;46.32;151460.75;5062643;28;20029;-67
2023/06/10 07:04:58;;;;;;;4.43;1.30;;;;;;;16.57;46.91;151447.84;5062420;28;20028;-67
2023/06/10 07:07:24;;;;;;;1.40;1.20;;;;;;;16.65;46.06;151468.47;5062213;28;20048;-66
2023/06/10 07:09:50;;;;;;;4.25;1.13;;;;;;;16.84;46.71;151514.84;5062642;28;20040;-65
2023/06/10 07:12:16;;;;;;;4.38;1.42;;;;;;;16.77;46.54;151496.81;5078421;28;20150;-66
2023/06/10 07:14:41;;;;;;;2.47;1.20;;;;;;;16.61;46.41;151458.16;5068915;28;20082;-66
2023/06/10 07:17:07;;;;;;;2.55;1.65;;;;;;;16.41;45.90;151406.66;5062143;28;20063;-65
2023/06/10 07:19:32;;;;;;;1.48;1.38;;;;;;;16.35;46.38;151393.78;5062619;28;20127;-65
2023/06/10 07:21:58;;;;;;;3.47;1.33;;;;;;;16.32;45.54;151384.78;5075810;28;20027;-65
2023/06/10 07:24:23;;;;;;;3.85;1.15;;;;;;;16.16;46.48;151344.81;5061818;28;20017;-65
2023/06/10 07:26:49;;;;;;;3.08;1.45;;;;;;;16.41;46.79;151407.94;5061296;28;20213;-66
2023/06/10 07:29:15;;;;;;;1.00;1.00;;;;;;;16.67;46.67;151472.34;5062320;28;20043;-64
2023/06/10 07:31:41;;;;;;;1.60;1.10;;;;;;;16.41;44.85;151407.94;5062039;28;20032;-65
2023/06/10 07:34:07;;;;;;;1.25;1.00;;;;;;;16.52;43.97;151435.00;5062077;28;20045;-65
2023/06/10 07:36:32;;;;;;;2.22;1.20;;;;;;;16.43;44.27;151413.06;5063238;28;20048;-65
2023/06/10 07:38:58;;;;;;;3.55;0.93;;;;;;;16.11;44.75;151331.97;5065979;28;20029;-67
2023/06/10 07:41:27;;;;;;;2.55;1.30;;;;;;;16.08;44.99;151325.53;5065639;28;20021;-66
2023/06/10 07:43:56;;;;;;;1.02;1.00;;;;;;;16.41;45.78;151406.66;5061560;28;20065;-65
2023/06/10 07:46:23;;;;;;;2.45;1.10;;;;;;;16.54;46.04;151440.13;5055143;28;20317;-66
2023/06/10 07:48:48;;;;;;;1.83;1.20;;;;;;;16.46;44.63;151420.84;5065901;28;20033;-66
2023/06/10 07:51:15;;;;;;;1.63;1.15;;;;;;;16.69;43.22;151477.53;5073131;28;20311;-67
2023/06/10 07:53:41;;;;;;;3.25;1.25;;;;;;;16.50;41.15;151429.81;5071382;28;20029;-67
2023/06/10 07:56:07;;;;;;;3.42;1.70;;;;;;;16.70;41.51;151481.38;5065752;28;20062;-65
2023/06/10 07:58:32;;;;;;;2.00;1.45;;;;;;;16.95;41.11;151543.25;5065598;28;20040;-66
2023/06/10 08:00:58;;;;;;;1.63;1.10;;;;;;;17.15;41.91;151592.22;5065481;28;20040;-64
2023/06/10 08:03:23;;;;;;;3.97;1.35;;;;;;;17.18;42.11;151601.22;5065228;28;20029;-66
2023/06/10 08:05:49;;;;;;;1.98;1.17;;;;;;;16.85;39.57;151518.72;5069167;28;20031;-66
2023/06/10 08:08:15;;;;;;;4.55;1.20;;;;;;;16.80;39.58;151504.53;5074760;28;20048;-65
2023/06/10 08:10:40;;;;;;;1.58;1.20;;;;;;;16.74;40.95;151491.69;5065488;28;20045;-65
2023/06/10 08:13:06;;;;;;;2.65;1.08;;;;;;;16.81;41.06;151507.13;5065267;28;20032;-65
2023/06/10 08:15:31;;;;;;;2.88;1.08;;;;;;;17.11;41.02;151583.19;5048023;28;20032;-66
2023/06/10 08:17:57;;;;;;;2.63;1.05;;;;;;;17.05;39.98;151569.00;5065291;28;20079;-67
2023/06/10 08:20:22;;;;;;;3.58;1.10;;;;;;;17.38;39.44;151651.50;5065360;28;20033;-68
2023/06/10 08:22:48;;;;;;;1.38;1.00;;;;;;;17.54;39.00;151690.16;5065238;28;20266;-67
2023/06/10 08:25:13;;;;;;;3.95;1.55;;;;;;;17.71;39.43;151732.72;5065184;28;20074;-68
2023/06/10 08:27:39;;;;;;;2.17;1.20;;;;;;;17.72;39.69;151735.31;5080210;28;20021;-68
2023/06/10 08:30:05;;;;;;;3.38;1.10;;;;;;;17.55;38.98;151692.75;5064118;28;20033;-68
2023/06/10 08:32:31;;;;;;;3.85;1.20;;;;;;;17.12;38.27;151585.78;5065120;28;20050;-69
2023/06/10 08:34:56;;;;;;;1.13;1.02;;;;;;;16.96;38.99;151545.84;5065043;28;20326;-68
2023/06/10 08:37:22;;;;;;;4.00;1.13;;;;;;;17.56;39.21;151696.63;5066794;28;20021;-68
2023/06/10 08:39:48;;;;;;;2.20;1.55;;;;;;;17.79;39.02;151752.06;5081718;28;20025;-67
2023/06/10 08:42:33;;;;;;;1.73;1.30;;;;;;;17.53;39.00;151687.56;5064884;28;20028;-68
2023/06/10 08:45:02;;;;;;;1.90;0.90;;;;;;;17.12;39.72;151584.50;5064777;28;20037;-69
2023/06/10 08:47:35;;;;;;;1.80;1.35;;;;;;;17.47;40.37;151673.41;5064747;28;20039;-68
2023/06/10 08:50:03;;;;;;;3.65;1.77;;;;;;;17.63;37.96;151713.38;5064341;28;20040;-69
2023/06/10 08:52:36;;;;;;;1.40;1.10;;;;;;;17.77;37.60;151748.16;5064382;28;20041;-68
2023/06/10 08:55:13;;;;;;;2.75;1.05;;;;;;;17.89;37.22;151777.84;5064406;28;20187;-69
2023/06/10 08:57:41;;;;;;;1.52;0.90;;;;;;;17.74;34.60;151741.75;5063646;28;20040;-68
2023/06/10 09:00:07;;;;;;;1.40;1.20;;;;;;;18.09;36.15;151828.19;5064076;28;20025;-68
2023/06/10 09:02:35;;;;;;;2.17;0.90;;;;;;;17.85;36.66;151768.81;5064502;28;20029;-68
2023/06/10 09:05:01;;;;;;;4.20;1.20;;;;;;;17.91;37.82;151784.34;5063954;28;20024;-68
2023/06/10 09:07:31;;;;;;;1.45;1.10;;;;;;;18.09;37.10;151829.44;5064102;28;20321;-69
2023/06/10 09:09:58;;;;;;;2.30;1.15;;;;;;;17.88;37.82;151775.25;5064533;28;20310;-68
2023/06/10 09:12:24;;;;;;;1.58;0.90;;;;;;;17.76;37.62;151746.88;5077396;28;20021;-68
2023/06/10 09:14:50;;;;;;;2.92;0.98;;;;;;;17.87;38.24;151772.66;5064269;28;20039;-69
2023/06/10 09:17:17;;;;;;;2.35;1.10;;;;;;;17.31;37.59;151632.19;5069610;28;20013;-68
2023/06/10 09:19:44;;;;;;;1.30;1.02;;;;;;;17.52;38.49;151686.31;5064058;28;20025;-69
2023/06/10 09:22:10;;;;;;;6.38;4.18;;;;;;;17.43;38.35;151664.41;5064210;28;20036;-68
2023/06/10 09:24:36;;;;;;;3.22;1.27;;;;;;;17.46;38.63;151670.84;5064248;28;20028;-69
2023/06/10 09:27:06;;;;;;;2.78;1.10;;;;;;;17.49;38.93;151678.56;5073809;28;20031;-69
2023/06/10 09:29:57;;;;;;;1.75;0.90;;;;;;;17.43;36.68;151663.13;5063591;28;20067;-68
2023/06/10 09:32:23;;;;;;;13.35;8.40;;;;;;;17.26;35.69;151620.59;5065081;28;20344;-70
2023/06/10 09:34:53;;;;;;;2.70;1.10;;;;;;;17.48;35.59;151674.72;5063105;28;20032;-67
2023/06/10 09:37:25;;;;;;;1.50;1.10;;;;;;;17.88;36.30;151776.53;5074201;28;20032;-67
2023/06/10 09:40:04;;;;;;;;;;;;;;;18.10;34.83;151830.78;5064345;28;20013;-68
2023/06/10 09:42:34;;;;;;;2.17;1.58;;;;;;;17.79;33.97;151753.34;5063381;28;20221;-67
2023/06/10 09:44:59;;;;;;;3.13;2.05;;;;;;;18.13;36.15;151837.19;5063546;28;20312;-68
2023/06/10 09:47:25;;;;;;;3.35;1.10;;;;;;;18.06;36.15;151820.44;5069858;28;20029;-67
2023/06/10 09:49:53;;;;;;;1.90;1.30;;;;;;;17.66;36.56;151721.13;5063626;28;20029;-67
2023/06/10 09:52:26;;;;;;;5.15;1.30;;;;;;;17.70;36.50;151731.44;5063360;28;20032;-66
2023/06/10 09:54:52;;;;;;;1.88;1.08;;;;;;;17.33;37.71;151638.63;5063293;28;20074;-68
2023/06/10 09:57:19;;;;;;;2.63;0.93;;;;;;;16.96;36.63;151545.84;5063363;28;20071;-66
2023/06/10 09:59:45;;;;;;;3.35;1.20;;;;;;;16.88;37.02;151526.50;5063234;28;20062;-67
2023/06/10 10:02:17;;;;;;;2.20;1.20;;;;;;;17.00;37.33;151556.16;5070176;28;20035;-70
2023/06/10 10:04:44;;;;;;;6.75;1.20;;;;;;;17.18;37.36;151599.97;5063366;28;20031;-69
2023/06/10 10:07:11;;;;;;;2.63;1.40;;;;;;;17.29;36.97;151628.31;5063135;28;20057;-67
2023/06/10 10:09:41;;;;;;;1.60;1.10;;;;;;;17.21;37.17;151608.97;5062940;28;20036;-67
2023/06/10 10:12:11;;;;;;;1.40;1.30;;;;;;;17.32;36.48;151634.75;5063214;28;20179;-68
2023/06/10 10:14:38;;;;;;;1.10;0.90;;;;;;;17.37;35.55;151648.94;5063318;28;20025;-68
2023/06/10 10:17:11;;;;;;;3.13;0.88;;;;;;;17.10;35.21;151580.59;5055143;28;20029;-66
2023/06/10 10:20:01;;;;;;;1.60;1.13;;;;;;;17.01;35.70;151558.69;5046060;28;20100;-67
2023/06/10 10:22:32;;;;;;;5.10;1.20;;;;;;;16.99;36.29;151553.56;5062884;28;20313;-68
2023/06/10 10:25:08;;;;;;;1.55;0.98;;;;;;;16.86;37.16;151520.00;5061984;28;20048;-69
2023/06/10 10:27:36;;;;;;;2.20;1.17;;;;;;;17.04;35.51;151566.44;5061998;28;20029;-66
2023/06/10 10:30:04;;;;;;;2.17;1.20;;;;;;;17.30;35.01;151629.59;5062871;28;20033;-70
2023/06/10 10:32:38;;;;;;;2.97;1.02;;;;;;;17.18;35.54;151599.97;5070375;28;20031;-68
2023/06/10 10:35:07;;;;;;;1.40;1.05;;;;;;;17.30;37.46;151630.91;5061445;28;20057;-68
2023/06/10 10:37:33;;;;;;;2.40;1.10;;;;;;;17.31;36.85;151633.44;5078012;28;20025;-68
2023/06/10 10:40:00;;;;;;;1.67;1.10;;;;;;;17.18;36.76;151601.22;5062768;28;20025;-68
2023/06/10 10:42:26;;;;;;;5.93;1.30;;;;;;;17.35;36.76;151643.75;5080209;28;20093;-68
2023/06/10 10:44:52;;;;;;;1.00;1.00;;;;;;;17.27;35.39;151621.88;5071017;28;20163;-69
2023/06/10 10:47:21;;;;;;;4.82;1.80;;;;;;;17.19;36.83;151603.81;5073739;28;20339;-67
2023/06/10 10:49:50;;;;;;;5.00;1.20;;;;;;;17.21;37.31;151607.69;5062870;28;20068;-66
2023/06/10 10:52:16;;;;;;;3.50;1.48;;;;;;;17.02;36.96;151560.03;5062922;28;20025;-67
2023/06/10 10:54:46;;;;;;;2.50;1.48;;;;;;;16.90;36.81;151530.34;5062693;28;20055;-67
2023/06/10 10:57:18;;;;;;;3.22;1.63;;;;;;;16.98;36.46;151550.97;5062503;28;20041;-69
2023/06/10 10:59:55;;;;;;;2.88;1.17;;;;;;;16.87;36.60;151522.59;5062704;28;20024;-68
2023/06/10 11:02:43;;;;;;;5.65;1.50;;;;;;;17.11;37.59;151583.19;5070131;28;20136;-68
2023/06/10 11:05:15;;;;;;;5.53;1.30;;;;;;;17.14;37.82;151589.66;5062576;28;20427;-67
2023/06/10 11:07:51;;;;;;;2.65;1.15;;;;;;;17.15;37.58;151592.22;5079169;28;20049;-69
2023/06/10 11:10:16;;;;;;;1.00;0.90;;;;;;;17.23;36.01;151614.13;5061271;28;20137;-69
2023/06/10 11:12:45;;;;;;;3.53;0.90;;;;;;;17.39;35.86;151654.06;5085055;28;20297;-67
2023/06/10 11:15:19;;;;;;;1.63;1.52;;;;;;;17.41;36.20;151657.94;5071045;28;20041;-67
2023/06/10 11:18:13;;;;;;;2.53;1.20;;;;;;;17.36;36.67;151646.34;5058473;28;20113;-68
2023/06/10 11:20:48;;;;;;;1.92;1.10;;;;;;;17.08;35.04;151576.75;5066529;28;20104;-67
2023/06/10 11:23:29;;;;;;;1.75;1.20;;;;;;;17.29;35.31;151627.00;5066106;28;20052;-67
2023/06/10 11:26:18;;;;;;;5.45;1.63;;;;;;;17.12;35.87;151585.78;5066292;28;20044;-68